Time;durP1;ratioP1;P1;durP2;ratioP2;P2;SDS_P1;SDS_P2;PMS_P1;PMS_P2;Temp;Humidity;BMP_temperature;BMP_pressure;BME280_temperature;BME280_humidity;BME280_pressure;Samples;Min_cycle;Max_cycle;Signal;HPM_P1;HPM_P2
2023/07/23 00:00:51;;;;;;;;;;;24.30;87.30;;;;;;5093919;28;20274;-61
2023/07/23 00:03:17;;;;;;;;;;;24.40;87.30;;;;;;5094829;28;20335;-61
2023/07/23 00:05:44;;;;;;;;;;;24.30;87.30;;;;;;5094715;28;19916;-61
2023/07/23 00:08:10;;;;;;;;;;;24.30;87.20;;;;;;5094807;28;19908;-62
2023/07/23 00:10:35;;;;;;;;;;;24.40;87.30;;;;;;5094286;28;19909;-61
2023/07/23 00:13:01;;;;;;;;;;;24.30;87.10;;;;;;5094972;28;19915;-62
2023/07/23 00:15:26;;;;;;;;;;;24.30;87.20;;;;;;5094567;28;19908;-61
2023/07/23 00:17:52;;;;;;;;;;;24.30;87.10;;;;;;5094330;28;19908;-61
2023/07/23 00:20:17;;;;;;;;;;;24.30;87.10;;;;;;5094131;28;19991;-61
2023/07/23 00:22:43;;;;;;;;;;;24.30;87.10;;;;;;5094795;28;19908;-62
2023/07/23 00:25:08;;;;;;;;;;;24.30;87.10;;;;;;5094114;28;19916;-61
2023/07/23 00:27:34;;;;;;;;;;;24.30;87.10;;;;;;5094470;28;20002;-61
2023/07/23 00:30:00;;;;;;;;;;;24.30;87.20;;;;;;5094091;28;19990;-61
2023/07/23 00:32:26;;;;;;;;;;;24.40;87.20;;;;;;5094309;28;19908;-61
2023/07/23 00:34:51;;;;;;;;;;;24.30;87.10;;;;;;5094070;28;19936;-62
2023/07/23 00:37:16;;;;;;;;;;;24.30;87.10;;;;;;5093939;28;19908;-62
2023/07/23 00:39:42;;;;;;;;;;;24.40;87.20;;;;;;5094381;28;20062;-62
2023/07/23 00:42:08;;;;;;;;;;;24.30;87.10;;;;;;5093945;28;19912;-61
2023/07/23 00:44:33;;;;;;;;;;;24.30;87.10;;;;;;5093933;28;19926;-62
2023/07/23 00:47:00;;;;;;;;;;;24.40;87.10;;;;;;5093941;28;19974;-61
2023/07/23 00:49:25;;;;;;;;;;;24.30;87.10;;;;;;5093891;28;19908;-62
2023/07/23 00:51:52;;;;;;;;;;;24.30;87.10;;;;;;5075990;28;19908;-61
2023/07/23 00:54:18;;;;;;;;;;;24.30;87.10;;;;;;5075902;28;20015;-61
2023/07/23 00:56:44;;;;;;;;;;;24.30;87.10;;;;;;5093806;28;19974;-62
2023/07/23 00:59:09;;;;;;;;;;;24.30;87.10;;;;;;5093800;28;19917;-62
2023/07/23 01:01:35;;;;;;;;;;;24.30;87.10;;;;;;5093692;28;19930;-62
2023/07/23 01:04:00;;;;;;;;;;;24.30;87.00;;;;;;5093801;28;19908;-62
2023/07/23 01:06:27;;;;;;;;;;;24.30;87.00;;;;;;5093720;28;19923;-62
2023/07/23 01:08:55;;;;;;;;;;;24.30;87.00;;;;;;5075817;28;19998;-61
2023/07/23 01:11:21;;;;;;;;;;;24.30;87.00;;;;;;5093738;28;19908;-62
2023/07/23 01:13:48;;;;;;;;;;;24.30;87.00;;;;;;5097307;28;19958;-61
2023/07/23 01:16:14;;;;;;;;;;;24.30;87.00;;;;;;5098022;28;20120;-62
2023/07/23 01:18:40;;;;;;;;;;;24.30;87.00;;;;;;5097639;28;20331;-62
2023/07/23 01:21:05;;;;;;;;;;;24.30;87.00;;;;;;5097626;28;19912;-62
2023/07/23 01:23:31;;;;;;;;;;;24.30;87.00;;;;;;5097578;28;19908;-62
2023/07/23 01:25:57;;;;;;;;;;;24.30;86.90;;;;;;5097940;28;19916;-62
2023/07/23 01:28:23;;;;;;;;;;;24.30;87.00;;;;;;5097459;28;19961;-61
2023/07/23 01:30:48;;;;;;;;;;;24.30;86.90;;;;;;5097950;28;19958;-62
2023/07/23 01:33:14;;;;;;;;;;;24.30;86.90;;;;;;5097689;28;19912;-62
2023/07/23 01:35:40;;;;;;;;;;;24.30;86.90;;;;;;5097605;28;19962;-62
2023/07/23 01:38:06;;;;;;;;;;;24.30;86.90;;;;;;5097591;28;19915;-62
2023/07/23 01:40:32;;;;;;;;;;;24.30;86.90;;;;;;5097534;28;19931;-62
2023/07/23 01:42:57;;;;;;;;;;;24.30;86.90;;;;;;5097452;28;19908;-61
2023/07/23 01:45:23;;;;;;;;;;;24.30;86.90;;;;;;5097188;28;19966;-61
2023/07/23 01:47:48;;;;;;;;;;;24.30;86.80;;;;;;5097749;28;20326;-61
2023/07/23 01:50:14;;;;;;;;;;;24.30;86.80;;;;;;5097403;28;19981;-62
2023/07/23 01:52:40;;;;;;;;;;;24.30;86.80;;;;;;5097310;28;19915;-62
2023/07/23 01:55:06;;;;;;;;;;;24.30;86.80;;;;;;5097318;28;19908;-62
2023/07/23 01:57:32;;;;;;;;;;;24.30;86.80;;;;;;5097198;28;19915;-61
2023/07/23 01:59:57;;;;;;;;;;;24.30;86.80;;;;;;5097532;28;20255;-61
2023/07/23 02:02:23;;;;;;;;;;;24.30;86.80;;;;;;5079031;28;20004;-61
2023/07/23 02:04:48;;;;;;;;;;;24.30;86.80;;;;;;5096979;28;19912;-61
2023/07/23 02:07:14;;;;;;;;;;;24.30;86.80;;;;;;5097065;28;19912;-61
2023/07/23 02:09:40;;;;;;;;;;;24.30;86.70;;;;;;5096965;28;19908;-61
2023/07/23 02:12:05;;;;;;;;;;;24.30;86.70;;;;;;5096950;28;19908;-61
2023/07/23 02:14:31;;;;;;;;;;;24.30;86.70;;;;;;5096589;28;20373;-61
2023/07/23 02:16:56;;;;;;;;;;;24.30;86.70;;;;;;5096816;28;19915;-62
2023/07/23 02:19:22;;;;;;;;;;;24.30;86.70;;;;;;5096893;28;20372;-61
2023/07/23 02:21:47;;;;;;;;;;;24.30;86.70;;;;;;5096503;28;19908;-61
2023/07/23 02:24:13;;;;;;;;;;;24.30;86.70;;;;;;5095825;28;19908;-62
2023/07/23 02:26:38;;;;;;;;;;;24.30;86.70;;;;;;5096684;28;19982;-62
2023/07/23 02:29:04;;;;;;;;;;;24.30;86.70;;;;;;5096538;28;19912;-62
2023/07/23 02:31:30;;;;;;;;;;;24.30;86.60;;;;;;5096571;28;19908;-61
2023/07/23 02:33:55;;;;;;;;;;;24.30;86.70;;;;;;5096226;28;19936;-62
2023/07/23 02:36:21;;;;;;;;;;;24.30;86.70;;;;;;5096155;28;20271;-61
2023/07/23 02:38:46;;;;;;;;;;;24.30;86.60;;;;;;5096396;28;19908;-60
2023/07/23 02:41:12;;;;;;;;;;;24.30;86.60;;;;;;5096404;28;19915;-62
2023/07/23 02:43:37;;;;;;;;;;;24.30;86.70;;;;;;5096286;28;20355;-62
2023/07/23 02:46:03;;;;;;;;;;;24.30;86.60;;;;;;5096267;28;19924;-61
2023/07/23 02:48:28;;;;;;;;;;;24.30;86.70;;;;;;5095918;28;19915;-61
2023/07/23 02:50:54;;;;;;;;;;;24.30;86.60;;;;;;5096221;28;19912;-62
2023/07/23 02:53:20;;;;;;;;;;;24.30;86.60;;;;;;5096239;28;19914;-61
2023/07/23 02:55:45;;;;;;;;;;;24.30;86.60;;;;;;5078152;28;19954;-62
2023/07/23 02:58:11;;;;;;;;;;;24.30;86.60;;;;;;5096088;28;19911;-62
2023/07/23 03:00:40;;;;;;;;;;;24.30;86.70;;;;;;5095757;28;19953;-62
2023/07/23 03:03:08;;;;;;;;;;;24.30;86.60;;;;;;5095998;28;19913;-61
2023/07/23 03:05:34;;;;;;;;;;;24.30;86.60;;;;;;5095871;28;20377;-62
2023/07/23 03:08:00;;;;;;;;;;;24.30;86.60;;;;;;5077703;28;19912;-62
2023/07/23 03:10:25;;;;;;;;;;;24.30;86.60;;;;;;5095900;28;20326;-62
2023/07/23 03:12:51;;;;;;;;;;;24.30;86.60;;;;;;5095843;28;19908;-62
2023/07/23 03:15:16;;;;;;;;;;;24.30;86.60;;;;;;5095924;28;20419;-62
2023/07/23 03:17:42;;;;;;;;;;;24.30;86.60;;;;;;5077601;28;19915;-62
2023/07/23 03:20:10;;;;;;;;;;;24.30;86.60;;;;;;5095693;28;19908;-62
2023/07/23 03:22:37;;;;;;;;;;;24.30;86.60;;;;;;5095566;28;19909;-62
2023/07/23 03:25:03;;;;;;;;;;;24.30;86.60;;;;;;5095230;28;20002;-61
2023/07/23 03:27:29;;;;;;;;;;;24.30;86.60;;;;;;5095428;28;20052;-61
2023/07/23 03:29:54;;;;;;;;;;;24.30;86.50;;;;;;5095031;28;20323;-62
2023/07/23 03:32:20;;;;;;;;;;;24.30;86.50;;;;;;5095017;28;19998;-61
2023/07/23 03:34:45;;;;;;;;;;;24.30;86.50;;;;;;5094110;28;19908;-62
2023/07/23 03:37:11;;;;;;;;;;;24.20;86.40;;;;;;5094970;28;20011;-62
2023/07/23 03:39:36;;;;;;;;;;;24.20;86.40;;;;;;5095077;28;19934;-61
2023/07/23 03:42:02;;;;;;;;;;;24.20;86.40;;;;;;5094845;28;19912;-61
2023/07/23 03:44:28;;;;;;;;;;;24.30;86.50;;;;;;5094980;28;20266;-62
2023/07/23 03:47:06;;;;;;;;;;;24.20;86.40;;;;;;5095031;28;19916;-61
2023/07/23 03:49:32;;;;;;;;;;;24.20;86.40;;;;;;5094973;28;19915;-61
2023/07/23 03:51:58;;;;;;;;;;;24.20;86.40;;;;;;5094919;28;19912;-62
2023/07/23 03:54:24;;;;;;;;;;;24.20;86.40;;;;;;5094889;28;19916;-62
2023/07/23 03:56:50;;;;;;;;;;;24.20;86.40;;;;;;5094968;28;19961;-61
2023/07/23 03:59:15;;;;;;;;;;;24.20;87.00;;;;;;5092583;28;20281;-62
2023/07/23 04:01:41;;;;;;;;;;;24.30;86.50;;;;;;5108654;28;19915;-62
2023/07/23 04:04:06;;;;;;;;;;;24.20;86.40;;;;;;5113909;28;19914;-62
2023/07/23 04:06:32;;;;;;;;;;;24.20;86.40;;;;;;5078112;28;20317;-61
2023/07/23 04:08:57;;;;;;;;;;;24.20;86.40;;;;;;5105172;28;19909;-61
2023/07/23 04:11:23;;;;;;;;;;;24.20;86.40;;;;;;5098378;28;19912;-61
2023/07/23 04:13:50;;;;;;;;;;;24.20;86.40;;;;;;5106476;28;19912;-62
2023/07/23 04:16:15;;;;;;;;;;;24.20;86.40;;;;;;5111129;28;19918;-62
2023/07/23 04:18:44;;;;;;;;;;;24.20;86.40;;;;;;5094231;28;20003;-61
2023/07/23 04:21:10;;;;;;;;;;;24.20;86.40;;;;;;5094521;28;19909;-62
2023/07/23 04:23:35;;;;;;;;;;;24.20;86.50;;;;;;5094763;28;19908;-62
2023/07/23 04:26:01;;;;;;;;;;;24.20;86.50;;;;;;5094148;28;19916;-61
2023/07/23 04:28:26;;;;;;;;;;;24.20;86.50;;;;;;5112787;28;19908;-62
2023/07/23 04:30:52;;;;;;;;;;;24.10;86.50;;;;;;5114369;28;19969;-61
2023/07/23 04:33:17;;;;;;;;;;;24.10;86.50;;;;;;5098908;28;19912;-62
2023/07/23 04:35:43;;;;;;;;;;;24.10;86.50;;;;;;5101461;28;19912;-61
2023/07/23 04:38:08;;;;;;;;;;;24.10;86.60;;;;;;5092082;28;19912;-61
2023/07/23 04:40:35;;;;;;;;;;;24.10;86.60;;;;;;5093848;28;19928;-61
2023/07/23 04:43:00;;;;;;;;;;;24.10;86.70;;;;;;5107168;28;19998;-61
2023/07/23 04:45:26;;;;;;;;;;;24.10;85.60;;;;;;5107542;28;20014;-61
2023/07/23 04:47:51;;;;;;;;;;;24.10;85.80;;;;;;5075781;28;20008;-61
2023/07/23 04:50:17;;;;;;;;;;;24.10;86.20;;;;;;5076080;28;19912;-61
2023/07/23 04:52:42;;;;;;;;;;;24.10;86.10;;;;;;5094052;28;20315;-61
2023/07/23 04:55:08;;;;;;;;;;;24.10;86.20;;;;;;5093823;28;19998;-61
2023/07/23 04:57:34;;;;;;;;;;;24.10;86.50;;;;;;5093813;28;20320;-61
2023/07/23 04:59:59;;;;;;;;;;;24.10;86.60;;;;;;5094396;28;19908;-61
2023/07/23 05:02:24;;;;;;;;;;;24.10;86.80;;;;;;5094134;28;19908;-60
2023/07/23 05:04:50;;;;;;;;;;;24.10;86.90;;;;;;5093664;28;19908;-60
2023/07/23 05:07:15;;;;;;;;;;;24.10;87.50;;;;;;5093680;28;19961;-61
2023/07/23 05:09:42;;;;;;;;;;;24.10;87.10;;;;;;5093990;28;19954;-61
2023/07/23 05:12:08;;;;;;;;;;;24.10;87.10;;;;;;5093983;28;19908;-61
2023/07/23 05:14:35;;;;;;;;;;;24.10;87.20;;;;;;5093986;28;19965;-61
2023/07/23 05:17:01;;;;;;;;;;;24.10;87.20;;;;;;5093940;28;19908;-61
2023/07/23 05:19:26;;;;;;;;;;;24.10;87.30;;;;;;5075896;28;19915;-61
2023/07/23 05:21:53;;;;;;;;;;;24.10;87.30;;;;;;5093878;28;19953;-61
2023/07/23 05:24:18;;;;;;;;;;;24.10;87.30;;;;;;5093612;28;19908;-61
2023/07/23 05:26:44;;;;;;;;;;;24.10;87.30;;;;;;5093773;28;19942;-61
2023/07/23 05:29:09;;;;;;;;;;;24.10;87.30;;;;;;5075492;28;19916;-61
2023/07/23 05:31:35;;;;;;;;;;;24.10;87.30;;;;;;5093455;28;19915;-61
2023/07/23 05:34:00;;;;;;;;;;;24.10;87.30;;;;;;5093988;28;19934;-61
2023/07/23 05:36:25;;;;;;;;;;;24.10;87.30;;;;;;5093660;28;19915;-61
2023/07/23 05:38:51;;;;;;;;;;;24.10;87.20;;;;;;5093603;28;19912;-60
2023/07/23 05:41:16;;;;;;;;;;;24.10;87.10;;;;;;5093615;28;19915;-61
2023/07/23 05:43:42;;;;;;;;;;;24.10;87.20;;;;;;5093802;28;20256;-60
2023/07/23 05:46:08;;;;;;;;;;;24.10;87.10;;;;;;5092950;28;19920;-60
2023/07/23 05:48:33;;;;;;;;;;;24.10;87.10;;;;;;5093235;28;19947;-60
2023/07/23 05:50:59;;;;;;;;;;;24.10;87.10;;;;;;5093531;28;19956;-60
2023/07/23 05:53:24;;;;;;;;;;;24.10;87.10;;;;;;5093444;28;19912;-59
2023/07/23 05:55:51;;;;;;;;;;;24.10;87.10;;;;;;5093416;28;19912;-62
2023/07/23 05:58:16;;;;;;;;;;;24.10;87.10;;;;;;5094253;28;19991;-60
2023/07/23 06:00:42;;;;;;;;;;;24.10;87.10;;;;;;5097047;28;19951;-60
2023/07/23 06:03:07;;;;;;;;;;;24.10;87.10;;;;;;5096682;28;19908;-60
2023/07/23 06:05:32;;;;;;;;;;;24.10;87.10;;;;;;5096964;28;19924;-60
2023/07/23 06:07:58;;;;;;;;;;;24.10;87.10;;;;;;5078842;28;19997;-61
2023/07/23 06:10:23;;;;;;;;;;;24.10;87.00;;;;;;5097093;28;20012;-60
2023/07/23 06:12:49;;;;;;;;;;;24.10;87.10;;;;;;5096653;28;20251;-61
2023/07/23 06:15:15;;;;;;;;;;;24.10;87.00;;;;;;5078167;28;19912;-61
2023/07/23 06:17:40;;;;;;;;;;;24.10;87.00;;;;;;5096368;28;19908;-61
2023/07/23 06:20:06;;;;;;;;;;;24.10;87.00;;;;;;5096283;28;20419;-61
2023/07/23 06:22:32;;;;;;;;;;;24.10;86.90;;;;;;5096626;28;19908;-61
2023/07/23 06:24:57;;;;;;;;;;;24.10;87.00;;;;;;5078300;28;19915;-60
2023/07/23 06:27:22;;;;;;;;;;;24.10;87.00;;;;;;5096224;28;20275;-61
2023/07/23 06:29:48;;;;;;;;;;;24.10;87.00;;;;;;5096555;28;19917;-61
2023/07/23 06:32:13;;;;;;;;;;;24.10;86.90;;;;;;5096292;28;20042;-61
2023/07/23 06:34:39;;;;;;;;;;;24.10;86.90;;;;;;5096247;28;19916;-60
2023/07/23 06:37:05;;;;;;;;;;;24.10;86.90;;;;;;5106540;28;19961;-60
2023/07/23 06:39:30;;;;;;;;;;;24.10;86.90;;;;;;5116698;28;19914;-61
2023/07/23 06:41:56;;;;;;;;;;;24.10;86.90;;;;;;5109677;28;19923;-61
2023/07/23 06:44:21;;;;;;;;;;;24.10;86.90;;;;;;5099104;28;19919;-62
2023/07/23 06:46:47;;;;;;;;;;;24.10;86.90;;;;;;5096099;28;19916;-62
2023/07/23 06:49:13;;;;;;;;;;;24.10;86.90;;;;;;5096044;28;20006;-61
2023/07/23 06:51:39;;;;;;;;;;;24.10;86.90;;;;;;5096507;28;20244;-62
2023/07/23 06:54:04;;;;;;;;;;;24.00;86.90;;;;;;5095858;28;19912;-61
2023/07/23 06:56:30;;;;;;;;;;;24.00;86.90;;;;;;5095660;28;19908;-61
2023/07/23 06:58:55;;;;;;;;;;;24.10;86.90;;;;;;5095987;28;19919;-61
2023/07/23 07:01:22;;;;;;;;;;;24.00;86.90;;;;;;5096026;28;19908;-62
2023/07/23 07:03:47;;;;;;;;;;;24.10;86.90;;;;;;5095876;28;19908;-61
2023/07/23 07:06:13;;;;;;;;;;;24.10;86.90;;;;;;5095712;28;20016;-61
2023/07/23 07:08:38;;;;;;;;;;;24.10;86.90;;;;;;5095641;28;19916;-61
2023/07/23 07:11:09;;;;;;;;;;;24.10;86.90;;;;;;5095736;28;19912;-61
2023/07/23 07:13:35;;;;;;;;;;;24.00;86.90;;;;;;5095747;28;19912;-62
2023/07/23 07:16:01;;;;;;;;;;;24.10;86.90;;;;;;5095340;28;19953;-61
2023/07/23 07:18:26;;;;;;;;;;;24.10;86.90;;;;;;5095226;28;19908;-62
2023/07/23 07:20:58;;;;;;;;;;;24.10;86.90;;;;;;5095590;28;19908;-62
2023/07/23 07:23:24;;;;;;;;;;;24.10;86.90;;;;;;5095569;28;20007;-61
2023/07/23 07:25:49;;;;;;;;;;;24.00;86.90;;;;;;5077262;28;19967;-62
2023/07/23 07:28:15;;;;;;;;;;;24.00;86.90;;;;;;5095352;28;19969;-62
2023/07/23 07:30:40;;;;;;;;;;;24.00;86.90;;;;;;5095421;28;19959;-61
2023/07/23 07:33:06;;;;;;;;;;;24.00;86.90;;;;;;5095027;28;19908;-61
2023/07/23 07:35:31;;;;;;;;;;;24.10;86.90;;;;;;5106848;28;19944;-61
2023/07/23 07:37:57;;;;;;;;;;;24.10;87.00;;;;;;5115258;28;19915;-62
2023/07/23 07:40:22;;;;;;;;;;;24.00;86.90;;;;;;5115567;28;20006;-62
2023/07/23 07:42:48;;;;;;;;;;;24.00;86.90;;;;;;5115008;28;20378;-62
2023/07/23 07:45:13;;;;;;;;;;;24.00;86.90;;;;;;5114816;28;19980;-61
2023/07/23 07:47:39;;;;;;;;;;;24.00;86.90;;;;;;5097189;28;20354;-61
2023/07/23 07:50:06;;;;;;;;;;;24.00;86.90;;;;;;5115049;28;20026;-62
2023/07/23 07:52:32;;;;;;;;;;;24.00;86.90;;;;;;5115265;28;19907;-61
2023/07/23 07:54:59;;;;;;;;;;;24.00;86.90;;;;;;5115189;28;19994;-61
2023/07/23 07:57:26;;;;;;;;;;;24.00;86.90;;;;;;5114779;28;19918;-61
2023/07/23 07:59:51;;;;;;;;;;;24.00;86.90;;;;;;5115027;28;20301;-62
2023/07/23 08:02:17;;;;;;;;;;;24.00;86.90;;;;;;5114652;28;19907;-62
2023/07/23 08:04:42;;;;;;;;;;;24.00;86.90;;;;;;5115057;28;19908;-61
2023/07/23 08:07:08;;;;;;;;;;;24.00;86.90;;;;;;5115003;28;19970;-62
2023/07/23 08:09:34;;;;;;;;;;;24.00;86.90;;;;;;5114993;28;19958;-61
2023/07/23 08:12:00;;;;;;;;;;;24.00;86.90;;;;;;5114886;28;19908;-62
2023/07/23 08:14:25;;;;;;;;;;;24.00;86.90;;;;;;5114947;28;19915;-61
2023/07/23 08:16:54;;;;;;;;;;;24.00;86.90;;;;;;5114580;28;19908;-62
2023/07/23 08:19:19;;;;;;;;;;;24.00;86.90;;;;;;5114591;28;19908;-61
2023/07/23 08:21:45;;;;;;;;;;;24.00;86.90;;;;;;5114167;28;19935;-62
2023/07/23 08:24:10;;;;;;;;;;;24.00;86.90;;;;;;5114486;28;19911;-61
2023/07/23 08:26:38;;;;;;;;;;;24.00;86.90;;;;;;5114445;28;20002;-62
2023/07/23 08:29:06;;;;;;;;;;;24.00;86.90;;;;;;5096353;28;19998;-61
2023/07/23 08:31:32;;;;;;;;;;;24.00;86.90;;;;;;5114634;28;19973;-61
2023/07/23 08:33:59;;;;;;;;;;;24.00;86.90;;;;;;5114760;28;19915;-61
2023/07/23 08:36:26;;;;;;;;;;;24.00;86.90;;;;;;5114582;28;19919;-61
2023/07/23 08:38:52;;;;;;;;;;;24.00;86.90;;;;;;5114428;28;20278;-62
2023/07/23 08:41:24;;;;;;;;;;;24.00;86.90;;;;;;5114155;28;19937;-62
2023/07/23 08:44:09;;;;;;;;;;;24.00;86.90;;;;;;5105489;28;19942;-61
2023/07/23 08:46:41;;;;;;;;;;;24.00;86.90;;;;;;5091702;28;19971;-62
2023/07/23 08:49:08;;;;;;;;;;;24.00;86.90;;;;;;5098852;28;19920;-62
2023/07/23 08:51:43;;;;;;;;;;;24.00;86.80;;;;;;5095926;28;19917;-61
2023/07/23 08:54:09;;;;;;;;;;;24.00;86.80;;;;;;5114296;28;19907;-61
2023/07/23 08:56:35;;;;;;;;;;;24.00;86.80;;;;;;5114228;28;19918;-61
2023/07/23 08:59:01;;;;;;;;;;;24.00;86.80;;;;;;5105183;28;19912;-61
2023/07/23 09:01:28;;;;;;;;;;;24.00;83.70;;;;;;5094723;28;20327;-60
2023/07/23 09:03:53;;;;;;;;;;;23.90;80.90;;;;;;5091430;28;20018;-57
2023/07/23 09:06:19;;;;;;;;;;;23.90;80.70;;;;;;5092278;28;19924;-60
2023/07/23 09:08:44;;;;;;;;;;;23.90;81.10;;;;;;5073652;28;20045;-61
2023/07/23 09:11:10;;;;;;;;;;;23.90;79.70;;;;;;5093191;28;19908;-61
2023/07/23 09:13:36;;;;;;;;;;;23.90;79.80;;;;;;5114093;28;20350;-62
2023/07/23 09:16:03;;;;;;;;;;;23.90;78.70;;;;;;5108945;28;19916;-61
2023/07/23 09:18:28;;;;;;;;;;;23.90;79.00;;;;;;5091832;28;19947;-59
2023/07/23 09:20:54;;;;;;;;;;;23.90;79.50;;;;;;5083187;28;19959;-62
2023/07/23 09:23:20;;;;;;;;;;;23.90;80.50;;;;;;5090874;28;19961;-61
2023/07/23 09:25:46;;;;;;;;;;;23.90;80.80;;;;;;5093531;28;19962;-61
2023/07/23 09:28:21;;;;;;;;;;;23.90;81.40;;;;;;5093790;28;19954;-61
2023/07/23 09:30:47;;;;;;;;;;;23.90;82.00;;;;;;5093838;28;19908;-62
2023/07/23 09:33:12;;;;;;;;;;;23.90;82.50;;;;;;5095148;28;19934;-62
2023/07/23 09:35:39;;;;;;;;;;;23.90;82.80;;;;;;5097370;28;19953;-62
2023/07/23 09:38:04;;;;;;;;;;;23.90;83.10;;;;;;5096482;28;19912;-62
2023/07/23 09:40:36;;;;;;;;;;;23.90;83.30;;;;;;5096420;28;20044;-61
2023/07/23 09:43:02;;;;;;;;;;;23.90;83.50;;;;;;5097318;28;19992;-61
2023/07/23 09:45:29;;;;;;;;;;;23.90;83.70;;;;;;5095429;28;20007;-59
2023/07/23 09:47:54;;;;;;;;;;;23.90;83.80;;;;;;5095496;28;19922;-62
2023/07/23 09:50:20;;;;;;;;;;;23.90;82.60;;;;;;5096820;28;20269;-62
2023/07/23 09:52:49;;;;;;;;;;;23.90;81.60;;;;;;5094934;28;20013;-61
2023/07/23 09:55:15;;;;;;;;;;;23.90;80.00;;;;;;5113942;28;20425;-61
2023/07/23 09:57:41;;;;;;;;;;;23.90;80.60;;;;;;5117137;28;19951;-61
2023/07/23 10:00:07;;;;;;;;;;;23.90;81.30;;;;;;5117377;28;20002;-61
2023/07/23 10:02:34;;;;;;;;;;;23.90;82.10;;;;;;5117337;28;20008;-61
2023/07/23 10:05:01;;;;;;;;;;;23.90;82.60;;;;;;5117689;28;19908;-61
2023/07/23 10:07:26;;;;;;;;;;;23.90;82.90;;;;;;5099146;28;19915;-59
2023/07/23 10:09:54;;;;;;;;;;;23.90;83.20;;;;;;5117372;28;19908;-61
2023/07/23 10:12:22;;;;;;;;;;;23.90;83.40;;;;;;5117222;28;20270;-61
2023/07/23 10:14:47;;;;;;;;;;;23.90;83.40;;;;;;5117278;28;19934;-61
2023/07/23 10:17:13;;;;;;;;;;;23.90;83.60;;;;;;5117179;28;19908;-61
2023/07/23 10:19:40;;;;;;;;;;;23.90;83.60;;;;;;5117515;28;19950;-61
2023/07/23 10:22:06;;;;;;;;;;;23.90;83.80;;;;;;5116831;28;20013;-61
2023/07/23 10:24:38;;;;;;;;;;;23.90;83.90;;;;;;5117051;28;19984;-61
2023/07/23 10:27:10;;;;;;;;;;;23.90;84.10;;;;;;5116969;28;19922;-61
2023/07/23 10:29:36;;;;;;;;;;;23.90;84.20;;;;;;5117251;28;19930;-61
2023/07/23 10:32:20;;;;;;;;;;;23.90;84.20;;;;;;5117347;28;19908;-61
2023/07/23 10:34:46;;;;;;;;;;;23.90;84.30;;;;;;5116842;28;19911;-61
2023/07/23 10:37:14;;;;;;;;;;;23.90;84.40;;;;;;5116431;28;20374;-61
2023/07/23 10:39:44;;;;;;;;;;;23.90;84.50;;;;;;5116775;28;19908;-61
2023/07/23 10:42:09;;;;;;;;;;;23.90;84.60;;;;;;5116717;28;20419;-61
2023/07/23 10:44:37;;;;;;;;;;;23.90;84.60;;;;;;5115951;28;19924;-61
2023/07/23 10:47:23;;;;;;;;;;;23.90;84.60;;;;;;5116422;28;19952;-61
2023/07/23 10:50:08;;;;;;;;;;;23.90;84.70;;;;;;5116077;28;20255;-61
2023/07/23 10:52:33;;;;;;;;;;;23.90;84.80;;;;;;5116326;28;19914;-61
2023/07/23 10:55:00;;;;;;;;;;;23.90;84.80;;;;;;5116105;28;19990;-60
2023/07/23 10:57:26;;;;;;;;;;;23.90;84.80;;;;;;5116191;28;19907;-61
2023/07/23 10:59:52;;;;;;;;;;;23.90;84.90;;;;;;5116313;28;19930;-61
2023/07/23 11:02:23;;;;;;;;;;;23.90;85.00;;;;;;5116029;28;20290;-62
2023/07/23 11:04:49;;;;;;;;;;;23.90;85.00;;;;;;5116357;28;19919;-61
2023/07/23 11:07:24;;;;;;;;;;;23.90;85.00;;;;;;5116151;28;19919;-61
2023/07/23 11:09:50;;;;;;;;;;;23.90;85.10;;;;;;5115991;28;20393;-61
2023/07/23 11:12:16;;;;;;;;;;;23.90;85.10;;;;;;5116049;28;19907;-61
2023/07/23 11:14:41;;;;;;;;;;;23.90;85.10;;;;;;5115828;28;19912;-61
2023/07/23 11:17:06;;;;;;;;;;;23.90;85.10;;;;;;5115901;28;20350;-61
2023/07/23 11:19:32;;;;;;;;;;;23.90;85.10;;;;;;5115601;28;20370;-61
2023/07/23 11:22:01;;;;;;;;;;;23.90;85.10;;;;;;5115944;28;20010;-61
2023/07/23 11:24:28;;;;;;;;;;;23.90;85.10;;;;;;5115859;28;19950;-61
2023/07/23 11:27:03;;;;;;;;;;;23.90;85.20;;;;;;5115373;28;19916;-61
2023/07/23 11:29:29;;;;;;;;;;;23.90;85.20;;;;;;5115466;28;19908;-61
2023/07/23 11:31:55;;;;;;;;;;;23.90;85.20;;;;;;5115345;28;20443;-61
2023/07/23 11:34:21;;;;;;;;;;;23.90;85.20;;;;;;5115333;28;19958;-61
2023/07/23 11:36:52;;;;;;;;;;;23.90;85.30;;;;;;5115095;28;20390;-61
2023/07/23 11:39:18;;;;;;;;;;;23.90;85.30;;;;;;5096965;28;19908;-61
2023/07/23 11:41:43;;;;;;;;;;;23.90;85.40;;;;;;5096681;28;20385;-60
2023/07/23 11:44:09;;;;;;;;;;;23.90;85.40;;;;;;5114871;28;20398;-59
2023/07/23 11:46:36;;;;;;;;;;;23.90;85.40;;;;;;5115250;28;19968;-62
2023/07/23 11:49:02;;;;;;;;;;;23.90;85.40;;;;;;5114892;28;20373;-60
2023/07/23 11:51:29;;;;;;;;;;;23.90;85.30;;;;;;5115247;28;19915;-61
2023/07/23 11:54:00;;;;;;;;;;;23.90;85.30;;;;;;5115203;28;19999;-61
2023/07/23 11:56:25;;;;;;;;;;;23.90;85.30;;;;;;5114430;28;19912;-61
2023/07/23 11:58:51;;;;;;;;;;;23.90;85.30;;;;;;5114953;28;19915;-61
2023/07/23 12:01:17;;;;;;;;;;;23.90;85.30;;;;;;5114962;28;19908;-61
2023/07/23 12:03:43;;;;;;;;;;;23.90;85.30;;;;;;5114733;28;19908;-61
2023/07/23 12:06:09;;;;;;;;;;;23.90;85.30;;;;;;5096657;28;19919;-61
2023/07/23 12:08:35;;;;;;;;;;;23.90;85.30;;;;;;5114583;28;20006;-61
2023/07/23 12:11:14;;;;;;;;;;;23.90;85.30;;;;;;5096783;28;19914;-61
2023/07/23 12:13:49;;;;;;;;;;;23.90;85.30;;;;;;5114914;28;19908;-61
2023/07/23 12:16:31;;;;;;;;;;;23.90;85.20;;;;;;5096559;28;20370;-61
2023/07/23 12:18:59;;;;;;;;;;;23.90;85.30;;;;;;5115377;28;20274;-60
2023/07/23 12:21:27;;;;;;;;;;;23.90;85.30;;;;;;5114639;28;19935;-61
2023/07/23 12:23:52;;;;;;;;;;;23.90;85.30;;;;;;5114267;28;20327;-60
2023/07/23 12:26:18;;;;;;;;;;;23.90;85.30;;;;;;5114325;28;19915;-61
2023/07/23 12:28:44;;;;;;;;;;;23.90;85.30;;;;;;5114358;28;20274;-60
2023/07/23 12:31:09;;;;;;;;;;;23.90;85.20;;;;;;5114411;28;20053;-60
2023/07/23 12:33:34;;;;;;;;;;;23.90;85.20;;;;;;5114530;28;19918;-60
2023/07/23 12:36:00;;;;;;;;;;;23.90;85.30;;;;;;5114172;28;19907;-60
2023/07/23 12:38:25;;;;;;;;;;;23.90;85.30;;;;;;5114551;28;19908;-61
2023/07/23 12:40:51;;;;;;;;;;;23.90;85.30;;;;;;5114410;28;20267;-61
2023/07/23 12:43:16;;;;;;;;;;;23.90;85.30;;;;;;5096099;28;19908;-61
2023/07/23 12:45:42;;;;;;;;;;;23.90;85.30;;;;;;5114318;28;19920;-61
2023/07/23 12:48:07;;;;;;;;;;;23.90;85.30;;;;;;5114195;28;20275;-61
2023/07/23 12:50:33;;;;;;;;;;;23.90;85.30;;;;;;5113705;28;19908;-61
2023/07/23 12:53:00;;;;;;;;;;;23.90;85.30;;;;;;5099362;28;19976;-60
2023/07/23 12:55:25;;;;;;;;;;;23.90;85.40;;;;;;5107265;28;20289;-61
2023/07/23 12:57:51;;;;;;;;;;;23.90;85.50;;;;;;5112838;28;19912;-61
2023/07/23 13:00:18;;;;;;;;;;;23.90;85.50;;;;;;5113927;28;19908;-61
2023/07/23 13:02:44;;;;;;;;;;;23.90;85.50;;;;;;5114200;28;19907;-61
2023/07/23 13:05:09;;;;;;;;;;;23.90;85.40;;;;;;5114226;28;20307;-61
2023/07/23 13:07:35;;;;;;;;;;;23.90;85.40;;;;;;5115730;28;20366;-61
2023/07/23 13:10:00;;;;;;;;;;;23.90;85.40;;;;;;5118432;28;19908;-61
2023/07/23 13:12:26;;;;;;;;;;;23.90;85.30;;;;;;5118311;28;19912;-61
2023/07/23 13:14:51;;;;;;;;;;;23.90;85.30;;;;;;5099777;28;19908;-61
2023/07/23 13:17:17;;;;;;;;;;;23.90;85.30;;;;;;5118506;28;19908;-61
2023/07/23 13:19:42;;;;;;;;;;;23.90;85.30;;;;;;5117907;28;19915;-61
2023/07/23 13:22:08;;;;;;;;;;;23.90;85.20;;;;;;5118300;28;20347;-61
2023/07/23 13:24:33;;;;;;;;;;;23.90;85.20;;;;;;5118097;28;19954;-60
2023/07/23 13:26:59;;;;;;;;;;;23.90;85.20;;;;;;5117903;28;19916;-61
2023/07/23 13:29:24;;;;;;;;;;;23.90;85.20;;;;;;5117545;28;19951;-60
2023/07/23 13:31:50;;;;;;;;;;;23.90;85.20;;;;;;5099541;28;19908;-61
2023/07/23 13:34:15;;;;;;;;;;;23.90;85.20;;;;;;5117957;28;19908;-61
2023/07/23 13:36:40;;;;;;;;;;;23.90;85.30;;;;;;5117950;28;19912;-61
2023/07/23 13:39:06;;;;;;;;;;;23.90;85.80;;;;;;5117983;28;20010;-60
2023/07/23 13:41:31;;;;;;;;;;;23.90;85.30;;;;;;5117570;28;19908;-61
2023/07/23 13:43:57;;;;;;;;;;;23.90;85.30;;;;;;5118125;28;19911;-62
2023/07/23 13:46:22;;;;;;;;;;;23.90;85.30;;;;;;5098330;28;20365;-61
2023/07/23 13:48:48;;;;;;;;;;;23.90;85.30;;;;;;5117346;28;19908;-61
2023/07/23 13:51:13;;;;;;;;;;;23.90;85.40;;;;;;5117386;28;19912;-61
2023/07/23 13:53:39;;;;;;;;;;;23.90;85.40;;;;;;5117481;28;19915;-61
2023/07/23 13:56:04;;;;;;;;;;;23.90;85.40;;;;;;5117096;28;20427;-61
2023/07/23 13:58:30;;;;;;;;;;;23.90;85.30;;;;;;5117400;28;20007;-62
2023/07/23 14:00:55;;;;;;;;;;;23.90;85.30;;;;;;5117485;28;20302;-62
2023/07/23 14:03:21;;;;;;;;;;;23.90;85.30;;;;;;5117698;28;19972;-62
2023/07/23 14:05:47;;;;;;;;;;;23.90;85.30;;;;;;5116904;28;20366;-61
2023/07/23 14:08:12;;;;;;;;;;;23.90;85.30;;;;;;5117443;28;20346;-61
2023/07/23 14:10:38;;;;;;;;;;;23.90;85.30;;;;;;5117363;28;19914;-61